sensor_id;sensor_type;location;lat;lon;timestamp;P1;durP1;ratioP1;P2;durP2;ratioP2
21501;SDS011;27639;48.674;9.242;2024-02-26T00:02:14;4.60;;;2.95;;
21501;SDS011;27639;48.674;9.242;2024-02-26T00:04:40;4.50;;;2.90;;
21501;SDS011;27639;48.674;9.242;2024-02-26T00:07:05;5.85;;;3.40;;
21501;SDS011;27639;48.674;9.242;2024-02-26T00:09:31;6.00;;;3.30;;
21501;SDS011;27639;48.674;9.242;2024-02-26T00:12:00;5.07;;;3.03;;
21501;SDS011;27639;48.674;9.242;2024-02-26T00:14:26;4.47;;;2.75;;
21501;SDS011;27639;48.674;9.242;2024-02-26T00:16:52;5.15;;;3.10;;
21501;SDS011;27639;48.674;9.242;2024-02-26T00:19:17;5.20;;;3.17;;
21501;SDS011;27639;48.674;9.242;2024-02-26T00:21:43;4.50;;;2.75;;
21501;SDS011;27639;48.674;9.242;2024-02-26T00:24:08;5.93;;;3.15;;
21501;SDS011;27639;48.674;9.242;2024-02-26T00:26:34;6.10;;;3.35;;
21501;SDS011;27639;48.674;9.242;2024-02-26T00:29:00;5.03;;;3.20;;
21501;SDS011;27639;48.674;9.242;2024-02-26T00:31:25;4.70;;;2.67;;
21501;SDS011;27639;48.674;9.242;2024-02-26T00:33:51;6.15;;;3.30;;
21501;SDS011;27639;48.674;9.242;2024-02-26T00:36:16;5.20;;;3.30;;
21501;SDS011;27639;48.674;9.242;2024-02-26T00:38:43;5.40;;;3.35;;
21501;SDS011;27639;48.674;9.242;2024-02-26T00:41:11;5.82;;;3.80;;
21501;SDS011;27639;48.674;9.242;2024-02-26T00:43:36;6.13;;;3.45;;
21501;SDS011;27639;48.674;9.242;2024-02-26T00:46:04;5.43;;;3.33;;
21501;SDS011;27639;48.674;9.242;2024-02-26T00:48:30;6.32;;;3.38;;
21501;SDS011;27639;48.674;9.242;2024-02-26T00:50:55;4.45;;;3.22;;
21501;SDS011;27639;48.674;9.242;2024-02-26T00:53:21;6.03;;;3.17;;
21501;SDS011;27639;48.674;9.242;2024-02-26T00:55:46;4.68;;;3.05;;
21501;SDS011;27639;48.674;9.242;2024-02-26T00:58:12;5.38;;;3.42;;
21501;SDS011;27639;48.674;9.242;2024-02-26T01:00:37;5.80;;;3.22;;
21501;SDS011;27639;48.674;9.242;2024-02-26T01:03:03;5.35;;;3.30;;
21501;SDS011;27639;48.674;9.242;2024-02-26T01:05:29;5.65;;;3.05;;
21501;SDS011;27639;48.674;9.242;2024-02-26T01:07:58;4.63;;;3.00;;
21501;SDS011;27639;48.674;9.242;2024-02-26T01:10:23;4.85;;;2.97;;
21501;SDS011;27639;48.674;9.242;2024-02-26T01:12:49;4.80;;;2.97;;
21501;SDS011;27639;48.674;9.242;2024-02-26T01:15:14;4.70;;;2.75;;
21501;SDS011;27639;48.674;9.242;2024-02-26T01:17:40;4.75;;;2.50;;
21501;SDS011;27639;48.674;9.242;2024-02-26T01:20:05;5.20;;;2.80;;
21501;SDS011;27639;48.674;9.242;2024-02-26T01:22:31;5.50;;;2.90;;
21501;SDS011;27639;48.674;9.242;2024-02-26T01:24:57;4.90;;;3.08;;
21501;SDS011;27639;48.674;9.242;2024-02-26T01:27:23;6.75;;;3.15;;
21501;SDS011;27639;48.674;9.242;2024-02-26T01:29:51;5.70;;;3.22;;
21501;SDS011;27639;48.674;9.242;2024-02-26T01:32:17;4.25;;;2.90;;
21501;SDS011;27639;48.674;9.242;2024-02-26T01:34:43;5.40;;;2.65;;
21501;SDS011;27639;48.674;9.242;2024-02-26T01:37:08;4.40;;;2.80;;
21501;SDS011;27639;48.674;9.242;2024-02-26T01:39:34;5.40;;;2.80;;
21501;SDS011;27639;48.674;9.242;2024-02-26T01:41:59;4.00;;;2.42;;
21501;SDS011;27639;48.674;9.242;2024-02-26T01:44:26;5.10;;;2.55;;
21501;SDS011;27639;48.674;9.242;2024-02-26T01:46:52;4.80;;;2.70;;
21501;SDS011;27639;48.674;9.242;2024-02-26T01:49:18;4.40;;;2.65;;
21501;SDS011;27639;48.674;9.242;2024-02-26T01:51:45;3.67;;;2.42;;
21501;SDS011;27639;48.674;9.242;2024-02-26T01:54:11;8.05;;;3.00;;
21501;SDS011;27639;48.674;9.242;2024-02-26T01:56:37;4.07;;;2.70;;
21501;SDS011;27639;48.674;9.242;2024-02-26T01:59:04;5.25;;;2.70;;
21501;SDS011;27639;48.674;9.242;2024-02-26T02:01:31;3.90;;;2.33;;
21501;SDS011;27639;48.674;9.242;2024-02-26T02:03:58;4.80;;;3.00;;
21501;SDS011;27639;48.674;9.242;2024-02-26T02:06:25;3.83;;;2.38;;
21501;SDS011;27639;48.674;9.242;2024-02-26T02:08:52;4.18;;;2.60;;
21501;SDS011;27639;48.674;9.242;2024-02-26T02:11:19;6.32;;;3.25;;
21501;SDS011;27639;48.674;9.242;2024-02-26T02:13:45;4.97;;;2.97;;
21501;SDS011;27639;48.674;9.242;2024-02-26T02:16:11;4.85;;;3.30;;
21501;SDS011;27639;48.674;9.242;2024-02-26T02:18:37;4.78;;;2.78;;
21501;SDS011;27639;48.674;9.242;2024-02-26T02:21:02;4.95;;;2.97;;
21501;SDS011;27639;48.674;9.242;2024-02-26T02:23:28;5.40;;;3.05;;
21501;SDS011;27639;48.674;9.242;2024-02-26T02:25:54;6.10;;;2.80;;
21501;SDS011;27639;48.674;9.242;2024-02-26T02:28:22;6.15;;;3.47;;
21501;SDS011;27639;48.674;9.242;2024-02-26T02:30:50;5.53;;;2.92;;
21501;SDS011;27639;48.674;9.242;2024-02-26T02:33:15;5.80;;;2.60;;
21501;SDS011;27639;48.674;9.242;2024-02-26T02:35:41;4.55;;;2.58;;
21501;SDS011;27639;48.674;9.242;2024-02-26T02:38:07;4.13;;;2.45;;
21501;SDS011;27639;48.674;9.242;2024-02-26T02:40:32;4.90;;;2.70;;
21501;SDS011;27639;48.674;9.242;2024-02-26T02:42:58;4.95;;;2.28;;
21501;SDS011;27639;48.674;9.242;2024-02-26T02:45:25;4.25;;;2.63;;
21501;SDS011;27639;48.674;9.242;2024-02-26T02:47:50;4.18;;;2.30;;
21501;SDS011;27639;48.674;9.242;2024-02-26T02:50:16;4.97;;;2.38;;
21501;SDS011;27639;48.674;9.242;2024-02-26T02:52:42;4.15;;;2.53;;
21501;SDS011;27639;48.674;9.242;2024-02-26T02:55:07;4.07;;;2.10;;
21501;SDS011;27639;48.674;9.242;2024-02-26T02:57:33;4.38;;;2.20;;
21501;SDS011;27639;48.674;9.242;2024-02-26T02:59:59;4.32;;;2.13;;
21501;SDS011;27639;48.674;9.242;2024-02-26T03:02:24;4.35;;;2.35;;
21501;SDS011;27639;48.674;9.242;2024-02-26T03:04:50;4.90;;;2.38;;
21501;SDS011;27639;48.674;9.242;2024-02-26T03:07:16;3.90;;;2.33;;
21501;SDS011;27639;48.674;9.242;2024-02-26T03:09:41;4.55;;;2.35;;
21501;SDS011;27639;48.674;9.242;2024-02-26T03:12:07;4.13;;;1.92;;
21501;SDS011;27639;48.674;9.242;2024-02-26T03:14:33;3.97;;;2.08;;
21501;SDS011;27639;48.674;9.242;2024-02-26T03:16:58;4.55;;;2.10;;
21501;SDS011;27639;48.674;9.242;2024-02-26T03:19:24;3.60;;;1.98;;
21501;SDS011;27639;48.674;9.242;2024-02-26T03:21:49;4.22;;;1.92;;
21501;SDS011;27639;48.674;9.242;2024-02-26T03:24:15;4.22;;;1.98;;
21501;SDS011;27639;48.674;9.242;2024-02-26T03:26:40;4.10;;;2.22;;
21501;SDS011;27639;48.674;9.242;2024-02-26T03:29:06;4.55;;;2.47;;
21501;SDS011;27639;48.674;9.242;2024-02-26T03:31:32;3.55;;;2.10;;
21501;SDS011;27639;48.674;9.242;2024-02-26T03:33:57;3.33;;;1.83;;
21501;SDS011;27639;48.674;9.242;2024-02-26T03:36:23;5.70;;;2.35;;
21501;SDS011;27639;48.674;9.242;2024-02-26T03:38:48;4.50;;;2.20;;
21501;SDS011;27639;48.674;9.242;2024-02-26T03:41:14;3.80;;;2.13;;
21501;SDS011;27639;48.674;9.242;2024-02-26T03:43:40;3.42;;;1.88;;
21501;SDS011;27639;48.674;9.242;2024-02-26T03:46:08;3.90;;;2.17;;
21501;SDS011;27639;48.674;9.242;2024-02-26T03:48:36;5.40;;;2.10;;
21501;SDS011;27639;48.674;9.242;2024-02-26T03:51:02;4.03;;;1.90;;
21501;SDS011;27639;48.674;9.242;2024-02-26T03:53:27;4.38;;;2.20;;
21501;SDS011;27639;48.674;9.242;2024-02-26T03:55:53;4.43;;;2.05;;
21501;SDS011;27639;48.674;9.242;2024-02-26T03:58:20;3.95;;;2.10;;
21501;SDS011;27639;48.674;9.242;2024-02-26T04:00:46;4.53;;;2.65;;
21501;SDS011;27639;48.674;9.242;2024-02-26T04:03:12;4.07;;;2.13;;
21501;SDS011;27639;48.674;9.242;2024-02-26T04:05:38;3.60;;;1.80;;
21501;SDS011;27639;48.674;9.242;2024-02-26T04:08:04;3.80;;;2.30;;
21501;SDS011;27639;48.674;9.242;2024-02-26T04:10:32;4.10;;;2.38;;
21501;SDS011;27639;48.674;9.242;2024-02-26T04:13:00;4.03;;;2.17;;
21501;SDS011;27639;48.674;9.242;2024-02-26T04:15:25;4.65;;;2.40;;
21501;SDS011;27639;48.674;9.242;2024-02-26T04:17:51;4.13;;;2.40;;
21501;SDS011;27639;48.674;9.242;2024-02-26T04:20:17;4.03;;;2.35;;
21501;SDS011;27639;48.674;9.242;2024-02-26T04:22:42;4.20;;;2.47;;
21501;SDS011;27639;48.674;9.242;2024-02-26T04:25:08;4.55;;;2.58;;
21501;SDS011;27639;48.674;9.242;2024-02-26T04:27:34;4.85;;;2.20;;
21501;SDS011;27639;48.674;9.242;2024-02-26T04:29:59;3.60;;;2.00;;
21501;SDS011;27639;48.674;9.242;2024-02-26T04:32:25;5.28;;;2.35;;
21501;SDS011;27639;48.674;9.242;2024-02-26T04:34:50;3.55;;;2.10;;
21501;SDS011;27639;48.674;9.242;2024-02-26T04:37:16;3.72;;;2.10;;
21501;SDS011;27639;48.674;9.242;2024-02-26T04:39:41;4.30;;;2.22;;
21501;SDS011;27639;48.674;9.242;2024-02-26T04:42:07;3.55;;;2.08;;
21501;SDS011;27639;48.674;9.242;2024-02-26T04:44:33;5.07;;;2.25;;
21501;SDS011;27639;48.674;9.242;2024-02-26T04:46:58;3.63;;;2.00;;
21501;SDS011;27639;48.674;9.242;2024-02-26T04:49:24;3.83;;;2.10;;
21501;SDS011;27639;48.674;9.242;2024-02-26T04:51:49;4.95;;;2.13;;
21501;SDS011;27639;48.674;9.242;2024-02-26T04:54:15;3.75;;;2.08;;
21501;SDS011;27639;48.674;9.242;2024-02-26T04:56:41;4.40;;;2.10;;
21501;SDS011;27639;48.674;9.242;2024-02-26T04:59:06;3.80;;;2.10;;
21501;SDS011;27639;48.674;9.242;2024-02-26T05:01:32;3.40;;;1.80;;
21501;SDS011;27639;48.674;9.242;2024-02-26T05:03:57;4.15;;;2.13;;
21501;SDS011;27639;48.674;9.242;2024-02-26T05:06:23;4.30;;;2.05;;
21501;SDS011;27639;48.674;9.242;2024-02-26T05:08:49;3.53;;;2.13;;
21501;SDS011;27639;48.674;9.242;2024-02-26T05:11:14;3.45;;;1.92;;
21501;SDS011;27639;48.674;9.242;2024-02-26T05:13:41;4.20;;;2.00;;
21501;SDS011;27639;48.674;9.242;2024-02-26T05:16:06;3.70;;;1.80;;
21501;SDS011;27639;48.674;9.242;2024-02-26T05:18:32;3.53;;;2.00;;
21501;SDS011;27639;48.674;9.242;2024-02-26T05:20:57;3.67;;;1.90;;
21501;SDS011;27639;48.674;9.242;2024-02-26T05:23:23;3.53;;;1.98;;
21501;SDS011;27639;48.674;9.242;2024-02-26T05:25:48;3.85;;;2.03;;
21501;SDS011;27639;48.674;9.242;2024-02-26T05:28:14;3.50;;;2.05;;
21501;SDS011;27639;48.674;9.242;2024-02-26T05:30:45;3.88;;;2.20;;
21501;SDS011;27639;48.674;9.242;2024-02-26T05:33:11;4.57;;;2.10;;
21501;SDS011;27639;48.674;9.242;2024-02-26T05:35:37;3.40;;;1.88;;
21501;SDS011;27639;48.674;9.242;2024-02-26T05:38:03;4.60;;;2.38;;
21501;SDS011;27639;48.674;9.242;2024-02-26T05:40:28;3.90;;;2.00;;
21501;SDS011;27639;48.674;9.242;2024-02-26T05:42:55;4.00;;;2.00;;
21501;SDS011;27639;48.674;9.242;2024-02-26T05:45:20;3.88;;;2.55;;
21501;SDS011;27639;48.674;9.242;2024-02-26T05:47:46;4.10;;;2.53;;
21501;SDS011;27639;48.674;9.242;2024-02-26T05:50:12;5.22;;;2.20;;
21501;SDS011;27639;48.674;9.242;2024-02-26T05:52:39;4.05;;;2.45;;
21501;SDS011;27639;48.674;9.242;2024-02-26T05:55:05;3.85;;;1.80;;
21501;SDS011;27639;48.674;9.242;2024-02-26T05:57:32;3.72;;;2.03;;
21501;SDS011;27639;48.674;9.242;2024-02-26T05:59:59;4.53;;;2.58;;
21501;SDS011;27639;48.674;9.242;2024-02-26T06:02:28;3.80;;;2.00;;
21501;SDS011;27639;48.674;9.242;2024-02-26T06:04:54;4.93;;;2.42;;
21501;SDS011;27639;48.674;9.242;2024-02-26T06:07:20;4.95;;;2.60;;
21501;SDS011;27639;48.674;9.242;2024-02-26T06:09:45;4.05;;;2.72;;
21501;SDS011;27639;48.674;9.242;2024-02-26T06:12:11;4.35;;;2.40;;
21501;SDS011;27639;48.674;9.242;2024-02-26T06:14:36;5.70;;;2.75;;
21501;SDS011;27639;48.674;9.242;2024-02-26T06:17:02;4.43;;;2.50;;
21501;SDS011;27639;48.674;9.242;2024-02-26T06:19:28;4.35;;;2.75;;
21501;SDS011;27639;48.674;9.242;2024-02-26T06:21:53;5.65;;;2.92;;
21501;SDS011;27639;48.674;9.242;2024-02-26T06:24:19;4.78;;;3.13;;
21501;SDS011;27639;48.674;9.242;2024-02-26T06:26:45;4.47;;;2.80;;
21501;SDS011;27639;48.674;9.242;2024-02-26T06:29:11;5.78;;;3.40;;
21501;SDS011;27639;48.674;9.242;2024-02-26T06:31:37;6.28;;;4.20;;
21501;SDS011;27639;48.674;9.242;2024-02-26T06:34:02;7.35;;;5.00;;
21501;SDS011;27639;48.674;9.242;2024-02-26T06:36:28;7.22;;;4.60;;
21501;SDS011;27639;48.674;9.242;2024-02-26T06:38:54;7.45;;;4.47;;
21501;SDS011;27639;48.674;9.242;2024-02-26T06:41:19;6.07;;;4.20;;
21501;SDS011;27639;48.674;9.242;2024-02-26T06:43:45;5.38;;;4.20;;
21501;SDS011;27639;48.674;9.242;2024-02-26T06:46:11;7.15;;;4.07;;
21501;SDS011;27639;48.674;9.242;2024-02-26T06:48:36;5.80;;;4.05;;
21501;SDS011;27639;48.674;9.242;2024-02-26T06:51:02;5.95;;;4.25;;
21501;SDS011;27639;48.674;9.242;2024-02-26T06:53:28;6.68;;;4.32;;
21501;SDS011;27639;48.674;9.242;2024-02-26T06:55:54;6.45;;;3.70;;
21501;SDS011;27639;48.674;9.242;2024-02-26T06:58:19;5.50;;;4.10;;
21501;SDS011;27639;48.674;9.242;2024-02-26T07:00:45;7.65;;;5.00;;
21501;SDS011;27639;48.674;9.242;2024-02-26T07:03:11;8.48;;;3.60;;
21501;SDS011;27639;48.674;9.242;2024-02-26T07:05:38;5.90;;;3.40;;
21501;SDS011;27639;48.674;9.242;2024-02-26T07:08:04;5.88;;;4.15;;
21501;SDS011;27639;48.674;9.242;2024-02-26T07:10:30;6.63;;;3.88;;
21501;SDS011;27639;48.674;9.242;2024-02-26T07:12:55;8.02;;;3.90;;
21501;SDS011;27639;48.674;9.242;2024-02-26T07:15:21;5.72;;;3.08;;
21501;SDS011;27639;48.674;9.242;2024-02-26T07:17:47;5.93;;;3.15;;
21501;SDS011;27639;48.674;9.242;2024-02-26T07:20:14;6.13;;;3.17;;
21501;SDS011;27639;48.674;9.242;2024-02-26T07:22:39;7.18;;;4.20;;
21501;SDS011;27639;48.674;9.242;2024-02-26T07:25:07;5.65;;;3.50;;
21501;SDS011;27639;48.674;9.242;2024-02-26T07:27:33;4.65;;;2.90;;
21501;SDS011;27639;48.674;9.242;2024-02-26T07:29:59;5.28;;;2.88;;
21501;SDS011;27639;48.674;9.242;2024-02-26T07:32:25;5.43;;;3.00;;
21501;SDS011;27639;48.674;9.242;2024-02-26T07:34:50;4.93;;;2.95;;
21501;SDS011;27639;48.674;9.242;2024-02-26T07:37:16;5.60;;;2.63;;
21501;SDS011;27639;48.674;9.242;2024-02-26T07:39:41;4.18;;;2.65;;
21501;SDS011;27639;48.674;9.242;2024-02-26T07:42:07;4.35;;;2.60;;
21501;SDS011;27639;48.674;9.242;2024-02-26T07:44:32;5.25;;;3.08;;
21501;SDS011;27639;48.674;9.242;2024-02-26T07:46:58;5.28;;;3.15;;
21501;SDS011;27639;48.674;9.242;2024-02-26T07:49:24;5.10;;;3.10;;
21501;SDS011;27639;48.674;9.242;2024-02-26T07:51:49;5.28;;;3.13;;
21501;SDS011;27639;48.674;9.242;2024-02-26T07:54:15;4.65;;;3.10;;
21501;SDS011;27639;48.674;9.242;2024-02-26T07:56:41;4.40;;;2.92;;
21501;SDS011;27639;48.674;9.242;2024-02-26T07:59:07;6.00;;;3.03;;
21501;SDS011;27639;48.674;9.242;2024-02-26T08:01:32;4.95;;;2.95;;
21501;SDS011;27639;48.674;9.242;2024-02-26T08:03:59;4.20;;;2.85;;
21501;SDS011;27639;48.674;9.242;2024-02-26T08:06:25;4.85;;;2.47;;
21501;SDS011;27639;48.674;9.242;2024-02-26T08:08:50;4.65;;;2.20;;
21501;SDS011;27639;48.674;9.242;2024-02-26T08:11:16;4.65;;;2.28;;
21501;SDS011;27639;48.674;9.242;2024-02-26T08:13:42;5.13;;;1.85;;
21501;SDS011;27639;48.674;9.242;2024-02-26T08:16:07;3.67;;;1.88;;
21501;SDS011;27639;48.674;9.242;2024-02-26T08:18:33;3.22;;;1.83;;
21501;SDS011;27639;48.674;9.242;2024-02-26T08:20:58;6.82;;;2.33;;
21501;SDS011;27639;48.674;9.242;2024-02-26T08:23:24;4.43;;;2.00;;
21501;SDS011;27639;48.674;9.242;2024-02-26T08:25:51;4.65;;;2.00;;
21501;SDS011;27639;48.674;9.242;2024-02-26T08:28:16;3.92;;;2.10;;
21501;SDS011;27639;48.674;9.242;2024-02-26T08:30:43;5.47;;;2.20;;
21501;SDS011;27639;48.674;9.242;2024-02-26T08:33:09;3.90;;;2.08;;
21501;SDS011;27639;48.674;9.242;2024-02-26T08:35:35;4.22;;;1.98;;
21501;SDS011;27639;48.674;9.242;2024-02-26T08:38:01;3.92;;;1.92;;
21501;SDS011;27639;48.674;9.242;2024-02-26T08:40:27;3.15;;;1.80;;
21501;SDS011;27639;48.674;9.242;2024-02-26T08:42:53;3.00;;;1.63;;
21501;SDS011;27639;48.674;9.242;2024-02-26T08:45:19;3.13;;;1.77;;
21501;SDS011;27639;48.674;9.242;2024-02-26T08:47:45;3.33;;;1.83;;
21501;SDS011;27639;48.674;9.242;2024-02-26T08:50:11;4.18;;;1.85;;
21501;SDS011;27639;48.674;9.242;2024-02-26T08:52:37;3.40;;;1.83;;
21501;SDS011;27639;48.674;9.242;2024-02-26T08:55:06;5.03;;;2.03;;
21501;SDS011;27639;48.674;9.242;2024-02-26T08:57:33;5.82;;;2.80;;
21501;SDS011;27639;48.674;9.242;2024-02-26T08:59:59;4.68;;;2.88;;
21501;SDS011;27639;48.674;9.242;2024-02-26T09:02:26;5.55;;;2.60;;
21501;SDS011;27639;48.674;9.242;2024-02-26T09:04:51;3.72;;;2.08;;
21501;SDS011;27639;48.674;9.242;2024-02-26T09:07:19;4.30;;;2.00;;
21501;SDS011;27639;48.674;9.242;2024-02-26T09:09:45;4.50;;;2.22;;
21501;SDS011;27639;48.674;9.242;2024-02-26T09:12:11;5.05;;;2.45;;
21501;SDS011;27639;48.674;9.242;2024-02-26T09:14:36;5.78;;;2.65;;
21501;SDS011;27639;48.674;9.242;2024-02-26T09:17:02;5.20;;;2.70;;
21501;SDS011;27639;48.674;9.242;2024-02-26T09:19:28;4.60;;;2.45;;
21501;SDS011;27639;48.674;9.242;2024-02-26T09:21:54;3.80;;;2.30;;
21501;SDS011;27639;48.674;9.242;2024-02-26T09:24:22;7.50;;;2.60;;
21501;SDS011;27639;48.674;9.242;2024-02-26T09:26:48;5.35;;;2.47;;
21501;SDS011;27639;48.674;9.242;2024-02-26T09:29:14;4.22;;;2.50;;
21501;SDS011;27639;48.674;9.242;2024-02-26T09:31:39;4.47;;;2.35;;
21501;SDS011;27639;48.674;9.242;2024-02-26T09:34:06;5.38;;;2.60;;
21501;SDS011;27639;48.674;9.242;2024-02-26T09:36:32;4.75;;;2.78;;
21501;SDS011;27639;48.674;9.242;2024-02-26T09:39:00;5.43;;;2.78;;
21501;SDS011;27639;48.674;9.242;2024-02-26T09:41:28;5.68;;;3.13;;
21501;SDS011;27639;48.674;9.242;2024-02-26T09:43:57;6.65;;;2.78;;
21501;SDS011;27639;48.674;9.242;2024-02-26T09:46:25;6.13;;;3.13;;
21501;SDS011;27639;48.674;9.242;2024-02-26T09:48:51;5.18;;;2.38;;
21501;SDS011;27639;48.674;9.242;2024-02-26T09:51:16;4.93;;;2.60;;
21501;SDS011;27639;48.674;9.242;2024-02-26T09:53:43;5.07;;;2.95;;
21501;SDS011;27639;48.674;9.242;2024-02-26T09:56:11;5.68;;;3.10;;
21501;SDS011;27639;48.674;9.242;2024-02-26T09:58:37;4.97;;;2.67;;
21501;SDS011;27639;48.674;9.242;2024-02-26T10:01:04;5.45;;;3.25;;
21501;SDS011;27639;48.674;9.242;2024-02-26T10:03:41;4.55;;;3.10;;
21501;SDS011;27639;48.674;9.242;2024-02-26T10:06:07;4.97;;;3.10;;
21501;SDS011;27639;48.674;9.242;2024-02-26T10:08:34;5.45;;;2.72;;
21501;SDS011;27639;48.674;9.242;2024-02-26T10:11:01;4.72;;;2.55;;
21501;SDS011;27639;48.674;9.242;2024-02-26T10:13:31;5.03;;;2.67;;
21501;SDS011;27639;48.674;9.242;2024-02-26T10:15:57;4.53;;;2.70;;
21501;SDS011;27639;48.674;9.242;2024-02-26T10:18:23;4.40;;;2.42;;
21501;SDS011;27639;48.674;9.242;2024-02-26T10:21:22;4.32;;;2.30;;
21501;SDS011;27639;48.674;9.242;2024-02-26T10:23:42;3.33;;;2.00;;
21501;SDS011;27639;48.674;9.242;2024-02-26T10:26:12;4.30;;;2.15;;
21501;SDS011;27639;48.674;9.242;2024-02-26T10:28:42;5.43;;;2.80;;
21501;SDS011;27639;48.674;9.242;2024-02-26T10:31:09;4.63;;;2.50;;
21501;SDS011;27639;48.674;9.242;2024-02-26T10:33:35;4.32;;;2.47;;
21501;SDS011;27639;48.674;9.242;2024-02-26T10:36:02;5.82;;;2.60;;
21501;SDS011;27639;48.674;9.242;2024-02-26T10:38:32;4.90;;;2.70;;
21501;SDS011;27639;48.674;9.242;2024-02-26T10:40:59;5.20;;;2.90;;
21501;SDS011;27639;48.674;9.242;2024-02-26T10:43:26;5.95;;;2.67;;
21501;SDS011;27639;48.674;9.242;2024-02-26T10:45:52;5.15;;;2.50;;
21501;SDS011;27639;48.674;9.242;2024-02-26T10:48:19;4.30;;;2.40;;
21501;SDS011;27639;48.674;9.242;2024-02-26T10:50:45;5.10;;;2.38;;
21501;SDS011;27639;48.674;9.242;2024-02-26T10:53:20;6.07;;;2.95;;
21501;SDS011;27639;48.674;9.242;2024-02-26T10:55:52;4.00;;;2.40;;
21501;SDS011;27639;48.674;9.242;2024-02-26T10:58:21;5.22;;;2.60;;
21501;SDS011;27639;48.674;9.242;2024-02-26T11:00:47;4.60;;;2.42;;
21501;SDS011;27639;48.674;9.242;2024-02-26T11:03:15;4.72;;;2.50;;
21501;SDS011;27639;48.674;9.242;2024-02-26T11:05:42;5.80;;;2.05;;
21501;SDS011;27639;48.674;9.242;2024-02-26T11:08:10;4.80;;;2.47;;
21501;SDS011;27639;48.674;9.242;2024-02-26T11:10:36;4.75;;;2.30;;
21501;SDS011;27639;48.674;9.242;2024-02-26T11:13:03;3.90;;;2.05;;
21501;SDS011;27639;48.674;9.242;2024-02-26T11:15:30;4.85;;;1.80;;
21501;SDS011;27639;48.674;9.242;2024-02-26T11:17:58;4.10;;;2.00;;
21501;SDS011;27639;48.674;9.242;2024-02-26T11:20:23;3.80;;;2.08;;
21501;SDS011;27639;48.674;9.242;2024-02-26T11:22:50;5.40;;;2.15;;
21501;SDS011;27639;48.674;9.242;2024-02-26T11:25:15;3.72;;;2.00;;
21501;SDS011;27639;48.674;9.242;2024-02-26T11:27:48;4.00;;;2.30;;
21501;SDS011;27639;48.674;9.242;2024-02-26T11:30:17;4.70;;;1.95;;
21501;SDS011;27639;48.674;9.242;2024-02-26T11:32:44;5.20;;;2.40;;
21501;SDS011;27639;48.674;9.242;2024-02-26T11:35:14;3.75;;;2.05;;
21501;SDS011;27639;48.674;9.242;2024-02-26T11:37:50;4.43;;;2.35;;
21501;SDS011;27639;48.674;9.242;2024-02-26T11:40:21;3.90;;;2.05;;
21501;SDS011;27639;48.674;9.242;2024-02-26T11:42:51;5.93;;;2.10;;
21501;SDS011;27639;48.674;9.242;2024-02-26T11:48:29;3.22;;;1.80;;
21501;SDS011;27639;48.674;9.242;2024-02-26T11:50:55;3.03;;;1.52;;
21501;SDS011;27639;48.674;9.242;2024-02-26T11:58:44;2.35;;;1.13;;
21501;SDS011;27639;48.674;9.242;2024-02-26T12:04:27;2.88;;;1.20;;
21501;SDS011;27639;48.674;9.242;2024-02-26T12:06:56;4.15;;;1.40;;
21501;SDS011;27639;48.674;9.242;2024-02-26T12:09:38;3.08;;;1.20;;
21501;SDS011;27639;48.674;9.242;2024-02-26T12:12:05;2.70;;;1.30;;
21501;SDS011;27639;48.674;9.242;2024-02-26T12:14:33;3.03;;;1.60;;
21501;SDS011;27639;48.674;9.242;2024-02-26T12:17:00;3.42;;;1.38;;
21501;SDS011;27639;48.674;9.242;2024-02-26T12:19:26;2.30;;;1.00;;
21501;SDS011;27639;48.674;9.242;2024-02-26T12:21:52;2.45;;;1.30;;
21501;SDS011;27639;48.674;9.242;2024-02-26T12:24:19;2.05;;;0.93;;
21501;SDS011;27639;48.674;9.242;2024-02-26T12:26:45;2.97;;;0.98;;
21501;SDS011;27639;48.674;9.242;2024-02-26T12:29:11;3.45;;;0.90;;
21501;SDS011;27639;48.674;9.242;2024-02-26T12:31:38;1.92;;;0.70;;
21501;SDS011;27639;48.674;9.242;2024-02-26T12:34:05;2.25;;;0.70;;
21501;SDS011;27639;48.674;9.242;2024-02-26T12:36:32;2.08;;;0.75;;
21501;SDS011;27639;48.674;9.242;2024-02-26T12:38:59;1.90;;;0.80;;
21501;SDS011;27639;48.674;9.242;2024-02-26T12:41:27;3.33;;;0.90;;
21501;SDS011;27639;48.674;9.242;2024-02-26T12:43:54;1.85;;;0.82;;
21501;SDS011;27639;48.674;9.242;2024-02-26T12:46:20;2.15;;;0.80;;
21501;SDS011;27639;48.674;9.242;2024-02-26T12:48:46;1.92;;;0.80;;
21501;SDS011;27639;48.674;9.242;2024-02-26T12:51:12;2.85;;;0.90;;
21501;SDS011;27639;48.674;9.242;2024-02-26T12:53:39;1.90;;;0.70;;
21501;SDS011;27639;48.674;9.242;2024-02-26T12:56:06;2.70;;;0.90;;
21501;SDS011;27639;48.674;9.242;2024-02-26T12:58:33;2.15;;;0.73;;
21501;SDS011;27639;48.674;9.242;2024-02-26T13:00:59;4.22;;;0.82;;
21501;SDS011;27639;48.674;9.242;2024-02-26T13:03:25;2.25;;;1.08;;
21501;SDS011;27639;48.674;9.242;2024-02-26T13:05:52;2.30;;;1.00;;
21501;SDS011;27639;48.674;9.242;2024-02-26T13:08:19;3.03;;;0.90;;
21501;SDS011;27639;48.674;9.242;2024-02-26T13:10:45;3.13;;;0.90;;
21501;SDS011;27639;48.674;9.242;2024-02-26T13:13:14;3.08;;;0.90;;
21501;SDS011;27639;48.674;9.242;2024-02-26T13:15:43;3.95;;;1.00;;
21501;SDS011;27639;48.674;9.242;2024-02-26T13:18:09;2.45;;;0.95;;
21501;SDS011;27639;48.674;9.242;2024-02-26T13:20:36;2.53;;;1.00;;
21501;SDS011;27639;48.674;9.242;2024-02-26T13:23:10;2.25;;;0.93;;
21501;SDS011;27639;48.674;9.242;2024-02-26T13:25:37;1.67;;;0.77;;
21501;SDS011;27639;48.674;9.242;2024-02-26T13:30:34;1.95;;;0.80;;
21501;SDS011;27639;48.674;9.242;2024-02-26T13:33:10;2.53;;;0.93;;
21501;SDS011;27639;48.674;9.242;2024-02-26T13:35:37;2.28;;;0.85;;
21501;SDS011;27639;48.674;9.242;2024-02-26T13:38:04;1.85;;;0.88;;
21501;SDS011;27639;48.674;9.242;2024-02-26T13:40:31;2.15;;;0.70;;
21501;SDS011;27639;48.674;9.242;2024-02-26T13:42:57;1.58;;;0.70;;
21501;SDS011;27639;48.674;9.242;2024-02-26T13:45:22;1.85;;;0.75;;
21501;SDS011;27639;48.674;9.242;2024-02-26T13:47:48;4.68;;;0.90;;
21501;SDS011;27639;48.674;9.242;2024-02-26T13:50:14;2.28;;;0.73;;
21501;SDS011;27639;48.674;9.242;2024-02-26T13:52:39;2.08;;;0.80;;
21501;SDS011;27639;48.674;9.242;2024-02-26T13:55:05;2.15;;;0.80;;
21501;SDS011;27639;48.674;9.242;2024-02-26T13:57:32;2.42;;;0.93;;
21501;SDS011;27639;48.674;9.242;2024-02-26T13:59:58;1.58;;;0.55;;
21501;SDS011;27639;48.674;9.242;2024-02-26T14:02:23;1.90;;;0.70;;
21501;SDS011;27639;48.674;9.242;2024-02-26T14:04:49;1.38;;;0.60;;
21501;SDS011;27639;48.674;9.242;2024-02-26T14:07:15;2.30;;;0.80;;
21501;SDS011;27639;48.674;9.242;2024-02-26T14:09:42;1.55;;;0.60;;
21501;SDS011;27639;48.674;9.242;2024-02-26T14:12:08;2.22;;;0.90;;
21501;SDS011;27639;48.674;9.242;2024-02-26T14:14:34;1.08;;;0.40;;
21501;SDS011;27639;48.674;9.242;2024-02-26T14:17:03;2.33;;;0.40;;
21501;SDS011;27639;48.674;9.242;2024-02-26T14:19:30;1.60;;;0.60;;
21501;SDS011;27639;48.674;9.242;2024-02-26T14:21:56;1.65;;;0.50;;
21501;SDS011;27639;48.674;9.242;2024-02-26T14:24:21;1.48;;;0.60;;
21501;SDS011;27639;48.674;9.242;2024-02-26T14:26:47;1.73;;;0.50;;
21501;SDS011;27639;48.674;9.242;2024-02-26T14:29:12;1.95;;;0.85;;
21501;SDS011;27639;48.674;9.242;2024-02-26T14:31:39;2.13;;;0.75;;
21501;SDS011;27639;48.674;9.242;2024-02-26T14:34:04;2.35;;;0.70;;
21501;SDS011;27639;48.674;9.242;2024-02-26T14:36:30;2.67;;;0.80;;
21501;SDS011;27639;48.674;9.242;2024-02-26T14:38:55;1.92;;;0.82;;
21501;SDS011;27639;48.674;9.242;2024-02-26T14:41:21;2.13;;;0.65;;
21501;SDS011;27639;48.674;9.242;2024-02-26T14:43:47;4.18;;;0.90;;
21501;SDS011;27639;48.674;9.242;2024-02-26T14:46:12;1.70;;;0.70;;
21501;SDS011;27639;48.674;9.242;2024-02-26T14:48:38;1.38;;;0.57;;
21501;SDS011;27639;48.674;9.242;2024-02-26T14:51:04;2.90;;;0.90;;
21501;SDS011;27639;48.674;9.242;2024-02-26T14:53:31;1.90;;;0.77;;
21501;SDS011;27639;48.674;9.242;2024-02-26T14:55:57;2.67;;;0.80;;
21501;SDS011;27639;48.674;9.242;2024-02-26T14:58:23;2.30;;;0.88;;